Norwegian Pearl — C6VG7 — position and weather

sailwx.info

Track history (hours):
 
Tides and Currents Weather Stations Pressure Air Temp Water Temp Dewpoint Dewpoint Depression Visibility Wind Speed Wind Dir Waves Ship Positions

Norwegian Pearl

Last reported at 2017-Apr-27 01:00 UTC. Time now 2017-Apr-27 01:32 UTC.
Position N 09°24' W 085°00'.

Type: Ship. MMSI: 309653000.

Wind from 040 at 5 knots

Barometer 1008.0 mb
Air temperature 27.0 ° C
Visibility: greater than 5.4 NM
Water temperature 28.0 ° C

Date/timePositionNaut miles runAvg speedWind from/ knotsBaromVisibWave heightAir tempDewpointWater temp
2017-Apr-27 01:00N 09°24' W 085°00'2221.5 040 / 51008.0 5.4 27.0 28.0
2017-Apr-27 00:00N 09°42' W 084°48'12 6.0 090 / 261008.0 5.4 27.0 28.0
2017-Apr-26 22:00N 09°54' W 084°48'0 0.0 340 / 101007.0 29.0 28.0
2017-Apr-26 21:00N 09°54' W 084°48'0 0.0 340 / 91007.0 30.0 28.0
2017-Apr-26 20:00N 09°54' W 084°48'0 0.0 340 / 161007.0 30.0 28.0
2017-Apr-26 19:00N 09°54' W 084°48'0 0.0 180 / 81009.0 5.4 30.0 30.0
2017-Apr-26 18:00N 09°54' W 084°48'0 0.0 180 / 81009.0 5.4 30.0 30.0
2017-Apr-26 17:00N 09°54' W 084°48'0 0.0 230 / 41009.0 5.4 30.0 31.0
2017-Apr-26 16:00N 09°54' W 084°48'13 2.7 270 / 51010.0 2.2 28.0 30.0
2017-Apr-26 11:00N 09°42' W 084°42'3812.6 010 / 91008.510.8 28.1 31.0
2017-Apr-26 08:00N 09°06' W 084°30'1313.4 020 / 51008.510.8 28.1 31.0
2017-Apr-26 07:00N 08°54' W 084°24'1716.9 200 / 31008.510.8 28.5 31.0
2017-Apr-26 06:00N 08°42' W 084°12'4711.7 240 / 41009.510.8 28.5 29.0
2017-Apr-26 02:00N 08°06' W 083°42'2121.5 210 / 91009.6 5.4 27.0 31.0
2017-Apr-26 01:00N 07°54' W 083°24'1313.3 210 / 181009.6 5.4 28.0 29.0
2017-Apr-26 00:00N 07°48' W 083°12'8 8.4 200 / 151008.6 5.4 28.0 29.0
2017-Apr-25 23:00N 07°42' W 083°06'3014.9 220 / 151008.6 5.4 28.0 29.0
2017-Apr-25 21:00N 07°24' W 082°42'1313.3 190 / 171008.210.8 28.5 30.0
2017-Apr-25 20:00N 07°18' W 082°30'1918.8 180 / 151008.410.8 28.7 30.0
2017-Apr-25 19:00N 07°12' W 082°12'8 8.5 150 / 101009.510.8 30.0 30.0
2017-Apr-25 18:00N 07°06' W 082°06'1313.3 100 / 81010.610.8 30.0 30.0
2017-Apr-25 17:00N 07°00' W 081°54'1313.3 090 / 61011.9 5.4 30.0 29.0
2017-Apr-25 16:00N 06°54' W 081°42'3014.9 110 / 41011.9 5.4 30.0 30.0
2017-Apr-25 14:00N 06°54' W 081°12'1817.9 360 / 61011.6 5.4 27.5 28.0
2017-Apr-25 13:00N 06°54' W 080°54'180180.4 170 / 31010.3 5.4 27.5 28.0
2017-Apr-25 12:00N 09°54' W 080°42'180180.4 170 / 31010.3 5.4 27.5 28.0
2017-Apr-25 11:00N 06°54' W 080°30'1817.9 030 / 101009.0 5.4 27.2 28.0
2017-Apr-25 10:00N 06°54' W 080°12'8 8.5 030 / 171009.0 5.4 27.2 28.0
2017-Apr-25 09:00N 07°00' W 080°06'3014.9 020 / 121009.0 5.4 27.2 28.0
2017-Apr-25 07:00N 07°18' W 079°42'1716.9 360 / 181009.3 5.4 27.0 28.0
2017-Apr-25 06:00N 07°30' W 079°30'103 7.7 010 / 171010.2 5.4 27.0 28.0
2017-Apr-24 16:33N 09°11' W 079°52'0 8.7
2017-Apr-24 16:30N 09°11' W 079°52'4 7.4
2017-Apr-24 16:00N 09°13' W 079°55'2 4.5
2017-Apr-24 15:30N 09°15' W 079°55'0 0.0
2017-Apr-24 14:58N 09°15' W 079°55'0 0.1
2017-Apr-24 14:30N 09°15' W 079°55'1 1.1
2017-Apr-24 13:30N 09°16' W 079°55'0 0.5
2017-Apr-24 13:00N 09°16' W 079°55'0 0.4
2017-Apr-24 12:30N 09°17' W 079°55'0 0.8
2017-Apr-24 12:00N 09°17' W 079°55'1 1.4
2017-Apr-24 11:30N 09°18' W 079°55'3 5.3
2017-Apr-24 11:00N 09°20' W 079°55'3 6.6
2017-Apr-24 10:30N 09°24' W 079°55'612.1
2017-Apr-24 10:01N 09°30' W 079°54'815.3
2017-Apr-24 09:29N 09°37' W 079°51'2415.8
2017-Apr-24 08:00N 09°48' W 079°30'1211.8 350 / 171009.3 5.4 27.4 29.0
2017-Apr-24 07:00N 09°48' W 079°18'606606.4 360 / 21009.6 5.4 27.3 29.0
2017-Apr-24 06:00N 19°54' W 078°54'600600.3 350 / 121009.8 5.4 27.3 29.0
2017-Apr-24 05:00N 09°54' W 078°36'3618.0 350 / 141010.4 5.4 27.5 29.0
2017-Apr-24 03:00N 10°00' W 078°00'2423.6 340 / 151010.5 5.4 28.0 29.0
2017-Apr-24 02:00N 10°00' W 077°36'5426.8 330 / 191009.2 5.4 28.0 29.0
2017-Apr-24 00:00N 10°06' W 076°42'3015.1 330 / 191006.7 5.4 26.8 29.0
2017-Apr-23 22:00N 10°12' W 076°12'35 2.7 330 / 191006.7 5.4 26.8 29.0
2017-Apr-23 09:00N 10°30' W 075°42'1918.9 070 / 91007.7 5.4 26.8 29.0
2017-Apr-23 08:00N 10°48' W 075°36'3618.2 070 / 91007.7 5.4 26.8 29.0
2017-Apr-23 06:00N 11°24' W 075°30'3015.0 060 / 191008.7 5.4 26.8 29.0
2017-Apr-23 04:00N 11°54' W 075°30'1918.9 080 / 211010.5 5.4 26.5 28.0
2017-Apr-23 03:00N 12°12' W 075°24'4816.1 070 / 241010.5 5.4 26.5 28.0
2017-Apr-23 00:00N 13°00' W 075°18'1818.0 080 / 251018.8 5.4 27.0 28.0
2017-Apr-22 23:00N 13°18' W 075°18'1212.0 090 / 251018.8 5.4 27.0 28.0
2017-Apr-22 22:00N 13°30' W 075°18'3115.3 090 / 251018.8 5.4 27.0 28.0
2017-Apr-22 20:00N 14°00' W 075°12'1212.0 100 / 251018.8 5.4 27.0 28.0
2017-Apr-22 19:00N 14°12' W 075°12'1918.9 090 / 271019.1 5.4 27.1 28.0
2017-Apr-22 18:00N 14°30' W 075°06'1818.0 100 / 261019.6 5.4 27.0 28.0
2017-Apr-22 17:00N 14°48' W 075°06'8517.0 100 / 301010.4 5.4 26.8 28.0
2017-Apr-22 12:00N 16°12' W 074°54'2424.0 100 / 381010.4 5.4 25.1 28.0
2017-Apr-22 11:00N 16°36' W 074°54'1918.9 090 / 351010.4 5.4 25.1 28.0
2017-Apr-22 10:00N 16°54' W 074°48'1818.0 090 / 391010.4 5.4 25.1 28.0
2017-Apr-22 09:00N 17°12' W 074°48'2524.7 110 / 301010.4 5.4 25.1 28.0
2017-Apr-22 08:00N 17°36' W 074°42'1818.0 110 / 301010.4 5.4 25.1 28.0
2017-Apr-22 07:00N 17°54' W 074°42'2424.0 110 / 301010.9 5.4 24.3 28.0
2017-Apr-22 06:00N 18°18' W 074°42'5718.9 050 / 211011.6 5.4 23.9 27.0
2017-Apr-22 03:00N 19°12' W 074°24'1918.9 060 / 121013.9 5.4 25.0 27.0
2017-Apr-22 02:00N 19°30' W 074°18'2121.3 060 / 121013.9 5.4 25.0 27.0
2017-Apr-22 01:00N 19°48' W 074°06'3618.0 070 / 261013.5 5.4 25.0 27.0
2017-Apr-21 23:00N 20°24' W 074°06'2525.5 070 / 261014.0 5.4 24.4 26.0
2017-Apr-21 22:00N 20°36' W 074°30'1817.9 070 / 261014.0 5.4 24.4 26.0
2017-Apr-21 21:00N 20°42' W 074°48'5919.6 070 / 261014.0 5.4 24.4 26.0
2017-Apr-21 18:00N 21°12' W 075°42'7919.6 070 / 261014.0 5.4 24.4 26.0
2017-Apr-21 14:00N 21°42' W 077°00'4120.5 070 / 281015.4 5.4 25.0 26.0
2017-Apr-21 12:00N 22°12' W 077°30'2120.5 050 / 341015.0 5.4 24.0 28.0
2017-Apr-21 11:00N 22°24' W 077°48'1817.7 070 / 241014.6 5.4 23.5 28.0
2017-Apr-21 10:00N 22°30' W 078°06'2020.5 070 / 241014.6 5.4 23.5 28.0
2017-Apr-21 09:00N 22°42' W 078°24'6868.0 080 / 241014.6 5.4 23.5 28.0
2017-Apr-21 08:00N 23°48' W 078°42'4343.4 080 / 281014.6 5.4 23.5 28.0
2017-Apr-21 07:00N 23°06' W 078°54'2121.1 060 / 281014.6 5.4 23.5 28.0
2017-Apr-21 06:00N 23°24' W 079°06'1918.8 060 / 321015.3 5.4 23.3 28.0
2017-Apr-21 05:00N 23°42' W 079°12'1918.8 080 / 261016.5 5.4 23.1 28.0
2017-Apr-21 04:00N 24°00' W 079°18'4522.5 080 / 321016.8 5.4 23.0 28.0
2017-Apr-21 02:00N 24°42' W 079°36'3216.0 070 / 361017.0 5.4 24.0 28.0
2017-Apr-21 00:00N 25°12' W 079°48'11146.2 070 / 291017.0 5.4 24.0 28.0
2017-Apr-20 23:55N 25°22' W 079°54'818.6
2017-Apr-20 23:30N 25°29' W 079°56'918.3
2017-Apr-20 23:01N 25°38' W 079°60'5311.8
2017-Apr-20 23:00N 25°36' W 079°54'1327.1 070 / 331017.0 10.0 28.0
2017-Apr-20 22:30N 25°45' W 080°04'4 8.6
2017-Apr-20 22:00N 25°46' W 080°09'1 1.4
2017-Apr-20 21:28N 25°46' W 080°10'0 0.0
2017-Apr-20 20:58N 25°46' W 080°10'0 0.0
2017-Apr-20 20:28N 25°46' W 080°10'0 0.0
2017-Apr-20 19:58N 25°46' W 080°10'0 0.0
2017-Apr-20 19:28N 25°46' W 080°10'612.0
2017-Apr-20 19:00N 25°42' W 080°06'6215.3 080 / 121019.0 5.4 23.0 26.0
2017-Apr-20 18:58N 25°46' W 080°10'0 0.0
2017-Apr-20 18:28N 25°46' W 080°10'612.0
2017-Apr-20 18:00N 25°42' W 080°06'625.1 100 / 171019.0 5.4 23.0 26.0
2017-Apr-20 17:46N 25°46' W 080°10'0 0.0
2017-Apr-20 17:28N 25°46' W 080°10'612.0
2017-Apr-20 17:00N 25°42' W 080°06'6215.3 100 / 141020.0 5.4 20.0 26.0
2017-Apr-20 16:58N 25°46' W 080°10'0 0.0
2017-Apr-20 16:22N 25°46' W 080°10'615.2
2017-Apr-20 16:00N 25°42' W 080°06'674.9 060 / 261020.0 5.4 23.0 26.0
2017-Apr-20 15:55N 25°46' W 080°10'0 0.0
2017-Apr-20 15:25N 25°46' W 080°10'0 0.0
2017-Apr-20 14:55N 25°46' W 080°10'0 0.0
2017-Apr-20 13:55N 25°46' W 080°10'0 0.0
2017-Apr-20 13:28N 25°46' W 080°10'0 0.0
2017-Apr-20 12:55N 25°46' W 080°10'0 0.0
2017-Apr-20 12:25N 25°46' W 080°10'613.4
2017-Apr-20 12:00N 25°42' W 080°06'6217.6 090 / 161019.9 5.4 25.0 27.0
2017-Apr-20 11:58N 25°46' W 080°10'0 0.0
2017-Apr-20 11:25N 25°46' W 080°10'0 0.0
2017-Apr-20 10:58N 25°46' W 080°10'0 0.0
2017-Apr-20 10:30N 25°46' W 080°10'0 0.0
2017-Apr-20 10:00N 25°46' W 080°10'1 2.3
2017-Apr-20 09:30N 25°47' W 080°11'3 5.9
2017-Apr-20 09:00N 25°46' W 080°08'510.5
2017-Apr-20 08:31N 25°47' W 080°02'5 9.5
2017-Apr-20 08:00N 25°46' W 079°57'815.7
2017-Apr-20 07:30N 25°39' W 079°55'918.7
2017-Apr-20 07:01N 25°30' W 079°55'918.7
2017-Apr-20 06:31N 25°20' W 079°54'1019.5
2017-Apr-20 06:00N 25°12' W 079°48'2121.0 100 / 281019.5 5.4 23.6 27.0
2017-Apr-20 05:00N 24°54' W 080°00'2121.0 120 / 281019.8 5.4 23.6 27.0
2017-Apr-20 04:00N 24°36' W 080°12'1717.4 100 / 271019.9 5.4 24.1 27.0
2017-Apr-20 03:00N 24°30' W 080°30'3718.7 090 / 271019.9 5.4 25.0 27.0
2017-Apr-20 01:00N 24°12' W 081°06'1616.4 070 / 221018.9 5.4 25.0 27.0
2017-Apr-20 00:00N 24°12' W 081°24'8 8.1 070 / 221018.3 5.4 25.0 27.0
2017-Apr-19 23:00N 24°18' W 081°30'1212.5 070 / 261017.0 10.0
2017-Apr-19 22:00N 24°24' W 081°42'8 2.7 070 / 261017.0 10.0
2017-Apr-19 19:00N 24°30' W 081°48'0 0.0 100 / 171018.0 5.4 22.0 26.0
2017-Apr-19 18:00N 24°30' W 081°48'0 0.0 110 / 171019.010.8 25.0 26.0
2017-Apr-19 11:00N 24°30' W 081°48'21 7.0 100 / 251017.4 5.4 24.4 27.0
2017-Apr-19 08:00N 24°12' W 082°00'8 8.1 100 / 251017.4 5.4 24.4 27.0
2017-Apr-19 07:00N 24°06' W 082°06'1212.5 100 / 251017.4 5.4 24.4 27.0
2017-Apr-19 06:00N 24°00' W 082°18'1312.5 090 / 211017.8 5.4 24.7 27.0
2017-Apr-19 05:00N 23°54' W 082°30'8 8.1 100 / 271018.3 5.4 24.9 27.0
2017-Apr-19 04:00N 23°48' W 082°36'2512.5 090 / 281018.1 5.4 25.0 27.0
2017-Apr-19 02:00N 23°36' W 083°00'2010.2 080 / 221017.7 5.4 25.0 27.0
2017-Apr-19 00:00N 23°24' W 083°18'1616.3 100 / 221016.1 5.4 25.5 27.0
2017-Apr-18 23:00N 23°12' W 083°30'1312.6 100 / 191015.010.8 10.0 28.0
2017-Apr-18 22:00N 23°06' W 083°42'1111.0 110 / 101015.010.8 10.0 28.0
2017-Apr-18 21:00N 23°06' W 083°54'7811.1 140 / 101015.0 10.0 28.0
2017-Apr-18 14:00N 22°18' W 085°00'2512.3 140 / 131016.4 5.4 27.0 28.0
2017-Apr-18 12:00N 22°00' W 085°18'1313.2 110 / 141016.0 5.4 25.0 28.0
2017-Apr-18 11:00N 21°48' W 085°24'1312.7 130 / 141013.5 5.4 25.0 28.0
2017-Apr-18 10:00N 21°42' W 085°36'1313.2 080 / 141013.5 5.4 25.0 28.0
2017-Apr-18 09:00N 21°30' W 085°42'2110.3 080 / 141013.5 5.4 25.0 28.0
2017-Apr-18 07:00N 21°18' W 086°00'1313.2 080 / 141013.5 5.4 25.0 28.0
2017-Apr-18 06:00N 21°06' W 086°06'1312.7 090 / 161013.9 5.4 25.0 28.0
2017-Apr-18 05:00N 21°00' W 086°18'2110.3 190 / 131014.5 5.4 25.0 28.0
2017-Apr-18 03:00N 20°48' W 086°36'2312.1 100 / 141014.5 5.4 25.0 28.0
2017-Apr-18 01:06N 20°35' W 086°56'110.8
2017-Apr-18 01:00N 20°34' W 086°57'3381.8
2017-Apr-18 01:00N 20°36' W 086°54'612.6 110 / 181014.5 5.4 25.0 28.0
2017-Apr-18 00:30N 20°31' W 086°57'0 0.2
2017-Apr-17 23:58N 20°31' W 086°57'0 0.0
2017-Apr-17 23:25N 20°31' W 086°57'0 0.0
2017-Apr-17 22:55N 20°31' W 086°57'0 0.0
2017-Apr-17 22:28N 20°31' W 086°57'0 0.0
2017-Apr-17 21:56N 20°31' W 086°57'0 0.0
2017-Apr-17 21:28N 20°31' W 086°57'0 0.0
2017-Apr-17 20:58N 20°31' W 086°57'0 0.0
2017-Apr-17 20:28N 20°31' W 086°57'0 0.0
2017-Apr-17 19:59N 20°31' W 086°57'0 0.0
2017-Apr-17 19:28N 20°31' W 086°57'0 0.0
2017-Apr-17 18:58N 20°31' W 086°57'0 0.0
2017-Apr-17 18:28N 20°31' W 086°57'0 0.0
2017-Apr-17 17:55N 20°31' W 086°57'0 0.0
2017-Apr-17 17:26N 20°31' W 086°57'0 0.0
2017-Apr-17 16:58N 20°31' W 086°57'0 0.0
2017-Apr-17 16:28N 20°31' W 086°57'0 0.0
2017-Apr-17 15:56N 20°31' W 086°57'0 0.1
2017-Apr-17 15:30N 20°31' W 086°57'1 2.4
2017-Apr-17 15:01N 20°32' W 086°57'5 9.8
2017-Apr-17 14:28N 20°37' W 086°55'4116.6
2017-Apr-17 12:00N 20°30' W 086°12'1716.9 080 / 191014.5 5.4 25.0 28.0
2017-Apr-17 11:00N 20°30' W 085°54'1312.7 080 / 191014.5 5.4 25.0 28.0
2017-Apr-17 10:00N 20°24' W 085°42'1817.9 060 / 191014.5 5.4 25.0 28.0
2017-Apr-17 09:00N 20°18' W 085°24'1817.9 060 / 191014.5 5.4 25.0 28.0
2017-Apr-17 08:00N 20°12' W 085°06'2323.3 070 / 191014.5 5.4 25.0 28.0
2017-Apr-17 07:00N 20°06' W 084°42'1817.9 060 / 151015.2 5.4 25.0 28.0
2017-Apr-17 06:00N 20°00' W 084°24'1818.0 050 / 141015.9 5.4 25.1 28.0
2017-Apr-17 05:00N 19°54' W 084°06'4020.0 060 / 131016.2 5.4 25.2 28.0
2017-Apr-17 03:00N 19°48' W 083°24'1818.0 090 / 91016.5 5.4 25.0 28.0
2017-Apr-17 02:00N 19°42' W 083°06'2323.4 130 / 91016.5 5.4 25.0 28.0
2017-Apr-17 01:00N 19°36' W 082°42'   070 / 111016.5 5.4 25.0 28.0
Track history (hours):
 
Tides and Currents Weather Stations Pressure Air Temp Water Temp Dewpoint Dewpoint Depression Visibility Wind Speed Wind Dir Waves Ship Positions

Norwegian Pearl

Last reported at 2017-Apr-27 01:00 UTC. Time now 2017-Apr-27 01:32 UTC.
Position N 09°24' W 085°00'.

Type: Ship. MMSI: 309653000.

Wind from 040 at 5 knots

Barometer 1008.0 mb
Air temperature 27.0 ° C
Visibility: greater than 5.4 NM
Water temperature 28.0 ° C

Date/timePositionNaut miles runAvg speedWind from/ knotsBaromVisibWave heightAir tempDewpointWater temp
2017-Apr-27 01:00N 09°24' W 085°00'2221.5 040 / 51008.0 5.4 27.0 28.0
2017-Apr-27 00:00N 09°42' W 084°48'12 6.0 090 / 261008.0 5.4 27.0 28.0
2017-Apr-26 22:00N 09°54' W 084°48'0 0.0 340 / 101007.0 29.0 28.0
2017-Apr-26 21:00N 09°54' W 084°48'0 0.0 340 / 91007.0 30.0 28.0
2017-Apr-26 20:00N 09°54' W 084°48'0 0.0 340 / 161007.0 30.0 28.0
2017-Apr-26 19:00N 09°54' W 084°48'0 0.0 180 / 81009.0 5.4 30.0 30.0
2017-Apr-26 18:00N 09°54' W 084°48'0 0.0 180 / 81009.0 5.4 30.0 30.0
2017-Apr-26 17:00N 09°54' W 084°48'0 0.0 230 / 41009.0 5.4 30.0 31.0
2017-Apr-26 16:00N 09°54' W 084°48'13 2.7 270 / 51010.0 2.2 28.0 30.0
2017-Apr-26 11:00N 09°42' W 084°42'3812.6 010 / 91008.510.8 28.1 31.0
2017-Apr-26 08:00N 09°06' W 084°30'1313.4 020 / 51008.510.8 28.1 31.0
2017-Apr-26 07:00N 08°54' W 084°24'1716.9 200 / 31008.510.8 28.5 31.0
2017-Apr-26 06:00N 08°42' W 084°12'4711.7 240 / 41009.510.8 28.5 29.0
2017-Apr-26 02:00N 08°06' W 083°42'2121.5 210 / 91009.6 5.4 27.0 31.0
2017-Apr-26 01:00N 07°54' W 083°24'1313.3 210 / 181009.6 5.4 28.0 29.0
2017-Apr-26 00:00N 07°48' W 083°12'8 8.4 200 / 151008.6 5.4 28.0 29.0
2017-Apr-25 23:00N 07°42' W 083°06'3014.9 220 / 151008.6 5.4 28.0 29.0
2017-Apr-25 21:00N 07°24' W 082°42'1313.3 190 / 171008.210.8 28.5 30.0
2017-Apr-25 20:00N 07°18' W 082°30'1918.8 180 / 151008.410.8 28.7 30.0
2017-Apr-25 19:00N 07°12' W 082°12'8 8.5 150 / 101009.510.8 30.0 30.0
2017-Apr-25 18:00N 07°06' W 082°06'1313.3 100 / 81010.610.8 30.0 30.0
2017-Apr-25 17:00N 07°00' W 081°54'1313.3 090 / 61011.9 5.4 30.0 29.0
2017-Apr-25 16:00N 06°54' W 081°42'3014.9 110 / 41011.9 5.4 30.0 30.0
2017-Apr-25 14:00N 06°54' W 081°12'1817.9 360 / 61011.6 5.4 27.5 28.0
2017-Apr-25 13:00N 06°54' W 080°54'180180.4 170 / 31010.3 5.4 27.5 28.0
2017-Apr-25 12:00N 09°54' W 080°42'180180.4 170 / 31010.3 5.4 27.5 28.0
2017-Apr-25 11:00N 06°54' W 080°30'1817.9 030 / 101009.0 5.4 27.2 28.0
2017-Apr-25 10:00N 06°54' W 080°12'8 8.5 030 / 171009.0 5.4 27.2 28.0
2017-Apr-25 09:00N 07°00' W 080°06'3014.9 020 / 121009.0 5.4 27.2 28.0
2017-Apr-25 07:00N 07°18' W 079°42'1716.9 360 / 181009.3 5.4 27.0 28.0
2017-Apr-25 06:00N 07°30' W 079°30'103 7.7 010 / 171010.2 5.4 27.0 28.0
2017-Apr-24 16:33N 09°11' W 079°52'0 8.7
2017-Apr-24 16:30N 09°11' W 079°52'4 7.4
2017-Apr-24 16:00N 09°13' W 079°55'2 4.5
2017-Apr-24 15:30N 09°15' W 079°55'0 0.0
2017-Apr-24 14:58N 09°15' W 079°55'0 0.1
2017-Apr-24 14:30N 09°15' W 079°55'1 1.1
2017-Apr-24 13:30N 09°16' W 079°55'0 0.5
2017-Apr-24 13:00N 09°16' W 079°55'0 0.4
2017-Apr-24 12:30N 09°17' W 079°55'0 0.8
2017-Apr-24 12:00N 09°17' W 079°55'1 1.4
2017-Apr-24 11:30N 09°18' W 079°55'3 5.3
2017-Apr-24 11:00N 09°20' W 079°55'3 6.6
2017-Apr-24 10:30N 09°24' W 079°55'612.1
2017-Apr-24 10:01N 09°30' W 079°54'815.3
2017-Apr-24 09:29N 09°37' W 079°51'2415.8
2017-Apr-24 08:00N 09°48' W 079°30'1211.8 350 / 171009.3 5.4 27.4 29.0
2017-Apr-24 07:00N 09°48' W 079°18'606606.4 360 / 21009.6 5.4 27.3 29.0
2017-Apr-24 06:00N 19°54' W 078°54'600600.3 350 / 121009.8 5.4 27.3 29.0
2017-Apr-24 05:00N 09°54' W 078°36'3618.0 350 / 141010.4 5.4 27.5 29.0
2017-Apr-24 03:00N 10°00' W 078°00'2423.6 340 / 151010.5 5.4 28.0 29.0
2017-Apr-24 02:00N 10°00' W 077°36'5426.8 330 / 191009.2 5.4 28.0 29.0
2017-Apr-24 00:00N 10°06' W 076°42'3015.1 330 / 191006.7 5.4 26.8 29.0
2017-Apr-23 22:00N 10°12' W 076°12'35 2.7 330 / 191006.7 5.4 26.8 29.0
2017-Apr-23 09:00N 10°30' W 075°42'1918.9 070 / 91007.7 5.4 26.8 29.0
2017-Apr-23 08:00N 10°48' W 075°36'3618.2 070 / 91007.7 5.4 26.8 29.0
2017-Apr-23 06:00N 11°24' W 075°30'3015.0 060 / 191008.7 5.4 26.8 29.0
2017-Apr-23 04:00N 11°54' W 075°30'1918.9 080 / 211010.5 5.4 26.5 28.0
2017-Apr-23 03:00N 12°12' W 075°24'4816.1 070 / 241010.5 5.4 26.5 28.0
2017-Apr-23 00:00N 13°00' W 075°18'1818.0 080 / 251018.8 5.4 27.0 28.0
2017-Apr-22 23:00N 13°18' W 075°18'1212.0 090 / 251018.8 5.4 27.0 28.0
2017-Apr-22 22:00N 13°30' W 075°18'3115.3 090 / 251018.8 5.4 27.0 28.0
2017-Apr-22 20:00N 14°00' W 075°12'1212.0 100 / 251018.8 5.4 27.0 28.0
2017-Apr-22 19:00N 14°12' W 075°12'1918.9 090 / 271019.1 5.4 27.1 28.0
2017-Apr-22 18:00N 14°30' W 075°06'1818.0 100 / 261019.6 5.4 27.0 28.0
2017-Apr-22 17:00N 14°48' W 075°06'8517.0 100 / 301010.4 5.4 26.8 28.0
2017-Apr-22 12:00N 16°12' W 074°54'2424.0 100 / 381010.4 5.4 25.1 28.0
2017-Apr-22 11:00N 16°36' W 074°54'1918.9 090 / 351010.4 5.4 25.1 28.0
2017-Apr-22 10:00N 16°54' W 074°48'1818.0 090 / 391010.4 5.4 25.1 28.0
2017-Apr-22 09:00N 17°12' W 074°48'2524.7 110 / 301010.4 5.4 25.1 28.0
2017-Apr-22 08:00N 17°36' W 074°42'1818.0 110 / 301010.4 5.4 25.1 28.0
2017-Apr-22 07:00N 17°54' W 074°42'2424.0 110 / 301010.9 5.4 24.3 28.0
2017-Apr-22 06:00N 18°18' W 074°42'5718.9 050 / 211011.6 5.4 23.9 27.0
2017-Apr-22 03:00N 19°12' W 074°24'1918.9 060 / 121013.9 5.4 25.0 27.0
2017-Apr-22 02:00N 19°30' W 074°18'2121.3 060 / 121013.9 5.4 25.0 27.0
2017-Apr-22 01:00N 19°48' W 074°06'3618.0 070 / 261013.5 5.4 25.0 27.0
2017-Apr-21 23:00N 20°24' W 074°06'2525.5 070 / 261014.0 5.4 24.4 26.0
2017-Apr-21 22:00N 20°36' W 074°30'1817.9 070 / 261014.0 5.4 24.4 26.0
2017-Apr-21 21:00N 20°42' W 074°48'5919.6 070 / 261014.0 5.4 24.4 26.0
2017-Apr-21 18:00N 21°12' W 075°42'7919.6 070 / 261014.0 5.4 24.4 26.0
2017-Apr-21 14:00N 21°42' W 077°00'4120.5 070 / 281015.4 5.4 25.0 26.0
2017-Apr-21 12:00N 22°12' W 077°30'2120.5 050 / 341015.0 5.4 24.0 28.0
2017-Apr-21 11:00N 22°24' W 077°48'1817.7 070 / 241014.6 5.4 23.5 28.0
2017-Apr-21 10:00N 22°30' W 078°06'2020.5 070 / 241014.6 5.4 23.5 28.0
2017-Apr-21 09:00N 22°42' W 078°24'6868.0 080 / 241014.6 5.4 23.5 28.0
2017-Apr-21 08:00N 23°48' W 078°42'4343.4 080 / 281014.6 5.4 23.5 28.0
2017-Apr-21 07:00N 23°06' W 078°54'2121.1 060 / 281014.6 5.4 23.5 28.0
2017-Apr-21 06:00N 23°24' W 079°06'1918.8 060 / 321015.3 5.4 23.3 28.0
2017-Apr-21 05:00N 23°42' W 079°12'1918.8 080 / 261016.5 5.4 23.1 28.0
2017-Apr-21 04:00N 24°00' W 079°18'4522.5 080 / 321016.8 5.4 23.0 28.0
2017-Apr-21 02:00N 24°42' W 079°36'3216.0 070 / 361017.0 5.4 24.0 28.0
2017-Apr-21 00:00N 25°12' W 079°48'11146.2 070 / 291017.0 5.4 24.0 28.0
2017-Apr-20 23:55N 25°22' W 079°54'818.6
2017-Apr-20 23:30N 25°29' W 079°56'918.3
2017-Apr-20 23:01N 25°38' W 079°60'5311.8
2017-Apr-20 23:00N 25°36' W 079°54'1327.1 070 / 331017.0 10.0 28.0
2017-Apr-20 22:30N 25°45' W 080°04'4 8.6
2017-Apr-20 22:00N 25°46' W 080°09'1 1.4
2017-Apr-20 21:28N 25°46' W 080°10'0 0.0
2017-Apr-20 20:58N 25°46' W 080°10'0 0.0
2017-Apr-20 20:28N 25°46' W 080°10'0 0.0
2017-Apr-20 19:58N 25°46' W 080°10'0 0.0
2017-Apr-20 19:28N 25°46' W 080°10'612.0
2017-Apr-20 19:00N 25°42' W 080°06'6215.3 080 / 121019.0 5.4 23.0 26.0
2017-Apr-20 18:58N 25°46' W 080°10'0 0.0
2017-Apr-20 18:28N 25°46' W 080°10'612.0
2017-Apr-20 18:00N 25°42' W 080°06'625.1 100 / 171019.0 5.4 23.0 26.0
2017-Apr-20 17:46N 25°46' W 080°10'0 0.0
2017-Apr-20 17:28N 25°46' W 080°10'612.0
2017-Apr-20 17:00N 25°42' W 080°06'6215.3 100 / 141020.0 5.4 20.0 26.0
2017-Apr-20 16:58N 25°46' W 080°10'0 0.0
2017-Apr-20 16:22N 25°46' W 080°10'615.2
2017-Apr-20 16:00N 25°42' W 080°06'674.9 060 / 261020.0 5.4 23.0 26.0
2017-Apr-20 15:55N 25°46' W 080°10'0 0.0
2017-Apr-20 15:25N 25°46' W 080°10'0 0.0
2017-Apr-20 14:55N 25°46' W 080°10'0 0.0
2017-Apr-20 13:55N 25°46' W 080°10'0 0.0
2017-Apr-20 13:28N 25°46' W 080°10'0 0.0
2017-Apr-20 12:55N 25°46' W 080°10'0 0.0
2017-Apr-20 12:25N 25°46' W 080°10'613.4
2017-Apr-20 12:00N 25°42' W 080°06'6217.6 090 / 161019.9 5.4 25.0 27.0
2017-Apr-20 11:58N 25°46' W 080°10'0 0.0
2017-Apr-20 11:25N 25°46' W 080°10'0 0.0
2017-Apr-20 10:58N 25°46' W 080°10'0 0.0
2017-Apr-20 10:30N 25°46' W 080°10'0 0.0
2017-Apr-20 10:00N 25°46' W 080°10'1 2.3
2017-Apr-20 09:30N 25°47' W 080°11'3 5.9
2017-Apr-20 09:00N 25°46' W 080°08'510.5
2017-Apr-20 08:31N 25°47' W 080°02'5 9.5
2017-Apr-20 08:00N 25°46' W 079°57'815.7
2017-Apr-20 07:30N 25°39' W 079°55'918.7
2017-Apr-20 07:01N 25°30' W 079°55'918.7
2017-Apr-20 06:31N 25°20' W 079°54'1019.5
2017-Apr-20 06:00N 25°12' W 079°48'2121.0 100 / 281019.5 5.4 23.6 27.0
2017-Apr-20 05:00N 24°54' W 080°00'2121.0 120 / 281019.8 5.4 23.6 27.0
2017-Apr-20 04:00N 24°36' W 080°12'1717.4 100 / 271019.9 5.4 24.1 27.0
2017-Apr-20 03:00N 24°30' W 080°30'3718.7 090 / 271019.9 5.4 25.0 27.0
2017-Apr-20 01:00N 24°12' W 081°06'1616.4 070 / 221018.9 5.4 25.0 27.0
2017-Apr-20 00:00N 24°12' W 081°24'8 8.1 070 / 221018.3 5.4 25.0 27.0
2017-Apr-19 23:00N 24°18' W 081°30'1212.5 070 / 261017.0 10.0
2017-Apr-19 22:00N 24°24' W 081°42'8 2.7 070 / 261017.0 10.0
2017-Apr-19 19:00N 24°30' W 081°48'0 0.0 100 / 171018.0 5.4 22.0 26.0
2017-Apr-19 18:00N 24°30' W 081°48'0 0.0 110 / 171019.010.8 25.0 26.0
2017-Apr-19 11:00N 24°30' W 081°48'21 7.0 100 / 251017.4 5.4 24.4 27.0
2017-Apr-19 08:00N 24°12' W 082°00'8 8.1 100 / 251017.4 5.4 24.4 27.0
2017-Apr-19 07:00N 24°06' W 082°06'1212.5 100 / 251017.4 5.4 24.4 27.0
2017-Apr-19 06:00N 24°00' W 082°18'1312.5 090 / 211017.8 5.4 24.7 27.0
2017-Apr-19 05:00N 23°54' W 082°30'8 8.1 100 / 271018.3 5.4 24.9 27.0
2017-Apr-19 04:00N 23°48' W 082°36'2512.5 090 / 281018.1 5.4 25.0 27.0
2017-Apr-19 02:00N 23°36' W 083°00'2010.2 080 / 221017.7 5.4 25.0 27.0
2017-Apr-19 00:00N 23°24' W 083°18'1616.3 100 / 221016.1 5.4 25.5 27.0
2017-Apr-18 23:00N 23°12' W 083°30'1312.6 100 / 191015.010.8 10.0 28.0
2017-Apr-18 22:00N 23°06' W 083°42'1111.0 110 / 101015.010.8 10.0 28.0
2017-Apr-18 21:00N 23°06' W 083°54'7811.1 140 / 101015.0 10.0 28.0
2017-Apr-18 14:00N 22°18' W 085°00'2512.3 140 / 131016.4 5.4 27.0 28.0
2017-Apr-18 12:00N 22°00' W 085°18'1313.2 110 / 141016.0 5.4 25.0 28.0
2017-Apr-18 11:00N 21°48' W 085°24'1312.7 130 / 141013.5 5.4 25.0 28.0
2017-Apr-18 10:00N 21°42' W 085°36'1313.2 080 / 141013.5 5.4 25.0 28.0
2017-Apr-18 09:00N 21°30' W 085°42'2110.3 080 / 141013.5 5.4 25.0 28.0
2017-Apr-18 07:00N 21°18' W 086°00'1313.2 080 / 141013.5 5.4 25.0 28.0
2017-Apr-18 06:00N 21°06' W 086°06'1312.7 090 / 161013.9 5.4 25.0 28.0
2017-Apr-18 05:00N 21°00' W 086°18'2110.3 190 / 131014.5 5.4 25.0 28.0
2017-Apr-18 03:00N 20°48' W 086°36'2312.1 100 / 141014.5 5.4 25.0 28.0
2017-Apr-18 01:06N 20°35' W 086°56'110.8
2017-Apr-18 01:00N 20°34' W 086°57'3381.8
2017-Apr-18 01:00N 20°36' W 086°54'612.6 110 / 181014.5 5.4 25.0 28.0
2017-Apr-18 00:30N 20°31' W 086°57'0 0.2
2017-Apr-17 23:58N 20°31' W 086°57'0 0.0
2017-Apr-17 23:25N 20°31' W 086°57'0 0.0
2017-Apr-17 22:55N 20°31' W 086°57'0 0.0
2017-Apr-17 22:28N 20°31' W 086°57'0 0.0
2017-Apr-17 21:56N 20°31' W 086°57'0 0.0
2017-Apr-17 21:28N 20°31' W 086°57'0 0.0
2017-Apr-17 20:58N 20°31' W 086°57'0 0.0
2017-Apr-17 20:28N 20°31' W 086°57'0 0.0
2017-Apr-17 19:59N 20°31' W 086°57'0 0.0
2017-Apr-17 19:28N 20°31' W 086°57'0 0.0
2017-Apr-17 18:58N 20°31' W 086°57'0 0.0
2017-Apr-17 18:28N 20°31' W 086°57'0 0.0
2017-Apr-17 17:55N 20°31' W 086°57'0 0.0
2017-Apr-17 17:26N 20°31' W 086°57'0 0.0
2017-Apr-17 16:58N 20°31' W 086°57'0 0.0
2017-Apr-17 16:28N 20°31' W 086°57'0 0.0
2017-Apr-17 15:56N 20°31' W 086°57'0 0.1
2017-Apr-17 15:30N 20°31' W 086°57'1 2.4
2017-Apr-17 15:01N 20°32' W 086°57'5 9.8
2017-Apr-17 14:28N 20°37' W 086°55'4116.6
2017-Apr-17 12:00N 20°30' W 086°12'1716.9 080 / 191014.5 5.4 25.0 28.0
2017-Apr-17 11:00N 20°30' W 085°54'1312.7 080 / 191014.5 5.4 25.0 28.0
2017-Apr-17 10:00N 20°24' W 085°42'1817.9 060 / 191014.5 5.4 25.0 28.0
2017-Apr-17 09:00N 20°18' W 085°24'1817.9 060 / 191014.5 5.4 25.0 28.0
2017-Apr-17 08:00N 20°12' W 085°06'2323.3 070 / 191014.5 5.4 25.0 28.0
2017-Apr-17 07:00N 20°06' W 084°42'1817.9 060 / 151015.2 5.4 25.0 28.0
2017-Apr-17 06:00N 20°00' W 084°24'1818.0 050 / 141015.9 5.4 25.1 28.0
2017-Apr-17 05:00N 19°54' W 084°06'4020.0 060 / 131016.2 5.4 25.2 28.0
2017-Apr-17 03:00N 19°48' W 083°24'1818.0 090 / 91016.5 5.4 25.0 28.0
2017-Apr-17 02:00N 19°42' W 083°06'2323.4 130 / 91016.5 5.4 25.0 28.0
2017-Apr-17 01:00N 19°36' W 082°42'   070 / 111016.5 5.4 25.0 28.0

Dump ship's entire track history